Previous Day
Next Day
Current Day
SHEF ID: NRCO2 Canadian River at Norman, OK
STATION TYPE:
STAGE RIV-FLOW BAT-LOAD
ft cfs volt
Ccp-Rev Ccp-Rev Ccp-Rev
(US/Central)
04/12 00:00 87.08 190 12.57
04/12 01:00 87.08 190 12.57
04/12 02:00 87.07 186 12.49
04/12 03:00 87.08 190 12.49
04/12 04:00 87.07 186 12.41
04/12 05:00 87.06 183 12.41
04/12 06:00 87.05 179 12.41
04/12 07:00 87.07 186 12.41
04/12 08:00 87.08 190 12.41
04/12 09:00 87.06 183 12.41
04/12 10:00 87.03 172 12.73
04/12 11:00 87.01 165 12.97
04/12 12:00 87.00 162 13.44
04/12 13:00 87.00 162 13.44
04/12 14:00 87.04 176 13.37
04/12 15:00 87.01 165 13.13
04/12 16:00 87.00 162 13.05
04/12 17:00 87.01 165 13.13
04/12 18:00 87.01 165 13.13
04/12 19:00 86.99 158 13.05
04/12 20:00 87.04 176 12.73
04/12 21:00 87.03 219 12.65
04/12 22:00 87.04 223 12.65
04/12 23:00 87.04 223 12.57